SBOSBO FAO / LPFR
Speedbird OnlineSpeedbird Online FAO / LPFR

Faro Airport
00:26 22°C

Location Faro, Portugal
Latitude: 37.0144004822
Longitude: -7.96590995789
Local Time 00:26 on 26 May 2024
UTC +1 hours (Europe/Lisbon)
Currency £1 equals EUR 1.17
METAR LPFR 252300Z 33011KT CAVOK 22/07 Q1017
TAF TAF LPFR 251700Z 2518/2618 25010KT CAVOK BECMG 2519/2521 33010KT BECMG 2602/2604 VRB02KT BECMG 2609/2611 15005KT BECMG 2613/2615 26017KT
Weather As Of 26 May 2024 00:25
Description Clear sky
Wind 20 km/h from North-West (330°)
Cloud Cover 0%
Precipitation Rain: none, Snow: none
Sunrise 06:16
Sunset 20:41
NOTAM 7 active NOTAM
Rotations During the last 90 days there were
140 flights from LGW
102 flights from LHR
5 flights from LCY
1 flights from FAO
134 flights to LGW
116 flights to LHR
4 flights to LCY
1 flights to FAO
Lounges CIP Lounge, Main Terminal
CIP Lounge - Schengen, Main Terminal
Web Airport Website | Wikipedia
Codes IATA: FAO
ICAO: LPFR
Altitude 7 Meter / 24 Feet
Distance 1,733 KM / 1,077 Miles
from London.
Runways
RunwayLength (m)Surface
102490Asphalt
282490Asphalt
Radio
TypeDescriptionFrequency
APPAPP119.4
ATISATIS124.2
GNDGND118.575
TWRTWR118.2
Live ATC



Support Speedbird Online

© 2017-2024 Speedbird Online